Terminal Aerodrome Forecast
Issued by NWS Cleveland, OH

Home | Current Version | Previous Version | Graphics & Text | Print | Product List | Glossary Off
Versions: 1 2 3 4 5 6 7 8 9 10 11 12 13 14 15 16 17 18 19

049
FTUS41 KCLE 222335 CCA
TAFERI
TAF COR
KERI 222335Z 2300/2324 23014KT P6SM FEW250
     FM230300 20006KT P6SM FEW250
     FM231600 16006KT P6SM SCT200
     FM231700 05006KT P6SM SCT200
     FM231800 02007KT P6SM BKN150=

USA.gov is the U.S. government's official web portal to all federal, state and local government web resources and services.